createdAt,value
2017-12-21T00:02:24.944Z,9.55
2017-12-21T00:04:54.053Z,7.80
2017-12-21T00:07:23.175Z,8.07
2017-12-21T00:09:52.314Z,8.93
2017-12-21T00:12:21.410Z,8.32
2017-12-21T00:14:50.487Z,8.10
2017-12-21T00:17:20.762Z,7.07
2017-12-21T00:19:49.863Z,9.23
2017-12-21T00:22:38.460Z,6.90
2017-12-21T00:25:07.964Z,9.73
2017-12-21T00:27:37.053Z,7.55
2017-12-21T00:30:07.327Z,7.72
2017-12-21T00:32:36.447Z,8.40
2017-12-21T00:35:05.610Z,7.43
2017-12-21T00:37:35.249Z,7.50
2017-12-21T00:40:04.555Z,6.55
2017-12-21T00:42:33.841Z,7.53
2017-12-21T00:45:03.478Z,7.57
2017-12-21T00:47:33.065Z,8.45
2017-12-21T00:50:02.516Z,7.18
2017-12-21T00:52:31.867Z,8.98
2017-12-21T00:55:01.057Z,7.57
2017-12-21T00:57:30.254Z,7.90
2017-12-21T00:59:59.643Z,8.15
2017-12-21T01:02:29.177Z,7.37
2017-12-21T01:04:58.445Z,7.00
2017-12-21T01:07:28.903Z,8.07
2017-12-21T01:09:58.196Z,7.93
2017-12-21T01:12:27.510Z,6.90
2017-12-21T01:14:59.365Z,7.50
2017-12-21T01:17:29.342Z,7.93
2017-12-21T01:19:58.765Z,9.48
2017-12-21T01:22:27.979Z,7.70
2017-12-21T01:24:58.883Z,8.45
2017-12-21T01:27:28.234Z,9.13
2017-12-21T01:29:57.445Z,8.35
2017-12-21T01:32:26.595Z,8.90
2017-12-21T01:34:56.716Z,9.18
2017-12-21T01:37:25.851Z,9.70
2017-12-21T01:39:54.961Z,9.15
2017-12-21T01:42:25.313Z,10.00
2017-12-21T01:44:55.217Z,10.10
2017-12-21T01:47:24.515Z,11.18
2017-12-21T01:49:53.654Z,12.07
2017-12-21T01:52:22.810Z,11.10
2017-12-21T01:54:52.008Z,9.65
2017-12-21T01:57:21.395Z,10.48
2017-12-21T01:59:51.269Z,10.70
2017-12-21T02:02:20.355Z,11.00
2017-12-21T02:04:50.198Z,11.20
2017-12-21T02:07:19.282Z,11.82
2017-12-21T02:09:48.383Z,10.45
2017-12-21T02:12:19.044Z,11.25
2017-12-21T02:14:48.150Z,10.57
2017-12-21T02:17:17.259Z,10.70
2017-12-21T02:19:47.467Z,11.45
2017-12-21T02:22:17.365Z,11.40
2017-12-21T02:24:46.563Z,11.20
2017-12-21T02:27:16.086Z,11.32
2017-12-21T02:29:45.231Z,10.85
2017-12-21T02:32:14.364Z,11.38
2017-12-21T02:34:45.159Z,11.65
2017-12-21T02:37:14.318Z,11.75
2017-12-21T02:39:44.234Z,11.90
2017-12-21T02:42:14.636Z,12.73
2017-12-21T02:44:44.134Z,12.07
2017-12-21T02:47:13.283Z,12.85
2017-12-21T02:49:43.007Z,11.50
2017-12-21T02:52:12.130Z,11.55
2017-12-21T02:54:42.064Z,13.52
2017-12-21T02:57:13.383Z,12.30
2017-12-21T02:59:42.487Z,10.82
2017-12-21T03:02:11.685Z,11.45
2017-12-21T03:04:41.314Z,11.38
2017-12-21T03:07:10.453Z,10.80
2017-12-21T03:09:39.641Z,8.75
2017-12-21T03:12:09.872Z,10.32
2017-12-21T03:14:39.845Z,10.38
2017-12-21T03:17:09.716Z,9.68
2017-12-21T03:19:38.861Z,9.98
2017-12-21T03:22:08.055Z,10.65
2017-12-21T03:24:37.223Z,9.75
2017-12-21T03:27:06.789Z,9.88
2017-12-21T03:29:35.960Z,10.75
2017-12-21T03:32:05.102Z,10.35
2017-12-21T03:34:34.420Z,9.48
2017-12-21T03:37:03.567Z,10.55
2017-12-21T03:39:33.514Z,9.63
2017-12-21T03:42:02.820Z,11.02
2017-12-21T03:44:32.131Z,9.70
2017-12-21T03:47:01.380Z,9.88
2017-12-21T03:49:31.436Z,10.07
2017-12-21T03:52:00.634Z,9.68
2017-12-21T03:54:29.842Z,9.18
2017-12-21T03:56:59.071Z,10.15
2017-12-21T03:59:28.224Z,9.82
2017-12-21T04:01:57.366Z,9.48
2017-12-21T04:04:27.184Z,10.70
2017-12-21T04:06:56.327Z,10.05
2017-12-21T04:09:25.468Z,10.30
2017-12-21T04:11:55.522Z,9.40
2017-12-21T04:14:24.657Z,10.60
2017-12-21T04:16:53.854Z,9.65
2017-12-21T04:19:23.151Z,9.20
2017-12-21T04:21:52.351Z,8.55
2017-12-21T04:24:21.529Z,9.60
2017-12-21T04:26:50.942Z,9.35
2017-12-21T04:29:20.867Z,8.50
2017-12-21T04:31:50.898Z,8.48
2017-12-21T04:34:21.336Z,8.50
2017-12-21T04:36:51.228Z,8.55
2017-12-21T04:39:20.399Z,8.45
2017-12-21T04:41:50.006Z,7.50
2017-12-21T04:44:19.321Z,7.87
2017-12-21T04:46:49.324Z,8.52
2017-12-21T04:49:18.527Z,9.00
2017-12-21T04:51:48.456Z,9.50
2017-12-21T04:54:17.612Z,9.90
2017-12-21T04:56:47.657Z,9.45
2017-12-21T04:59:17.568Z,8.48
2017-12-21T05:01:47.494Z,9.05
2017-12-21T05:04:17.621Z,10.02
2017-12-21T05:06:47.572Z,9.80
2017-12-21T05:09:17.487Z,9.00
2017-12-21T05:11:47.406Z,10.18
2017-12-21T05:14:17.348Z,8.82
2017-12-21T05:16:47.276Z,8.02
2017-12-21T05:19:17.328Z,8.55
2017-12-21T05:21:47.295Z,7.82
2017-12-21T05:24:16.384Z,7.72
2017-12-21T05:26:46.532Z,6.30
2017-12-21T05:29:15.728Z,7.07
2017-12-21T05:31:44.914Z,6.90
2017-12-21T05:34:14.535Z,5.22
2017-12-21T05:36:43.884Z,5.90
2017-12-21T05:39:13.186Z,5.35
2017-12-21T05:41:42.369Z,5.47
2017-12-21T05:44:11.687Z,5.60
2017-12-21T05:46:40.880Z,5.68
2017-12-21T05:49:10.875Z,6.22
2017-12-21T05:51:40.589Z,6.28
2017-12-21T05:54:10.605Z,5.82
2017-12-21T05:56:41.518Z,6.65
2017-12-21T05:59:10.729Z,7.72
2017-12-21T06:01:40.043Z,7.20
2017-12-21T06:04:09.220Z,7.43
2017-12-21T06:06:38.496Z,7.25
2017-12-21T06:09:07.597Z,7.32
2017-12-21T06:11:36.743Z,6.72
2017-12-21T06:14:05.861Z,7.45
2017-12-21T06:16:34.961Z,7.28
2017-12-21T06:19:04.099Z,6.25
2017-12-21T06:21:33.969Z,7.65
2017-12-21T06:24:03.059Z,8.00
2017-12-21T06:26:32.278Z,7.20
2017-12-21T06:29:01.370Z,6.28
2017-12-21T06:31:30.475Z,6.90
2017-12-21T06:34:00.371Z,7.40
2017-12-21T06:36:29.458Z,8.85
2017-12-21T06:38:58.544Z,8.18
2017-12-21T06:41:28.619Z,8.48
2017-12-21T06:43:57.694Z,8.05
2017-12-21T06:46:26.779Z,7.32
2017-12-21T06:48:56.220Z,7.12
2017-12-21T06:51:25.378Z,6.70
2017-12-21T06:53:54.478Z,6.32
2017-12-21T06:56:23.727Z,5.82
2017-12-21T06:58:53.029Z,5.18
2017-12-21T07:01:22.139Z,6.35
2017-12-21T07:03:52.463Z,6.78
2017-12-21T07:06:22.302Z,5.25
2017-12-21T07:08:51.407Z,6.87
2017-12-21T07:11:20.544Z,6.47
2017-12-21T07:13:49.654Z,7.10
2017-12-21T07:16:18.750Z,6.72
2017-12-21T07:18:47.903Z,7.45
2017-12-21T07:21:17.044Z,5.78
2017-12-21T07:23:46.902Z,5.00
2017-12-21T07:26:16.058Z,6.20
2017-12-21T07:28:45.177Z,6.90
2017-12-21T07:31:14.381Z,5.60
2017-12-21T07:33:44.622Z,5.37
2017-12-21T07:36:13.926Z,5.55
2017-12-21T07:38:43.326Z,6.12
2017-12-21T07:41:13.458Z,5.80
2017-12-21T07:43:42.753Z,6.32
2017-12-21T07:46:12.052Z,5.65
2017-12-21T07:48:41.627Z,6.00
2017-12-21T07:51:11.544Z,6.50
2017-12-21T07:53:41.561Z,5.75
2017-12-21T07:56:10.761Z,5.15
2017-12-21T07:58:39.954Z,5.80
2017-12-21T08:01:09.120Z,7.25
2017-12-21T08:03:38.253Z,6.47
2017-12-21T08:06:08.133Z,6.03
2017-12-21T08:08:37.243Z,7.03
2017-12-21T08:11:07.606Z,6.12
2017-12-21T08:13:36.695Z,5.93
2017-12-21T08:16:05.798Z,6.47
2017-12-21T08:18:35.499Z,6.65
2017-12-21T08:21:04.595Z,6.18
2017-12-21T08:23:33.718Z,5.80
2017-12-21T08:26:03.608Z,7.32
2017-12-21T08:28:33.446Z,5.85
2017-12-21T08:31:02.540Z,6.93
2017-12-21T08:33:32.516Z,5.12
2017-12-21T08:36:01.612Z,6.75
2017-12-21T08:38:30.702Z,6.45
2017-12-21T08:41:00.258Z,6.45
2017-12-21T08:43:29.361Z,7.68
2017-12-21T08:45:58.459Z,7.35
2017-12-21T08:48:28.007Z,10.40
2017-12-21T08:50:57.104Z,6.53
2017-12-21T08:53:26.193Z,5.55
2017-12-21T08:55:55.628Z,6.12
2017-12-21T08:58:24.772Z,6.43
2017-12-21T09:00:53.911Z,6.15
2017-12-21T09:03:23.780Z,6.10
2017-12-21T09:05:52.891Z,6.20
2017-12-21T09:08:21.985Z,5.82
2017-12-21T09:10:51.107Z,5.18
2017-12-21T09:13:20.209Z,4.82
2017-12-21T09:15:49.340Z,5.85
2017-12-21T09:18:18.852Z,5.40
2017-12-21T09:20:48.042Z,5.65
2017-12-21T09:23:17.186Z,5.90
2017-12-21T09:25:47.096Z,5.37
2017-12-21T09:28:16.237Z,4.37
2017-12-21T09:30:45.369Z,4.70
2017-12-21T09:33:15.419Z,3.90
2017-12-21T09:35:44.616Z,5.55
2017-12-21T09:38:13.747Z,4.55
2017-12-21T09:40:43.498Z,6.55
2017-12-21T09:43:12.771Z,5.20
2017-12-21T09:45:42.161Z,5.15
2017-12-21T09:48:11.803Z,4.55
2017-12-21T09:50:41.177Z,5.05
2017-12-21T09:53:10.639Z,4.50
2017-12-21T09:55:40.993Z,3.87
2017-12-21T09:58:10.154Z,4.97
2017-12-21T10:00:39.594Z,4.55
2017-12-21T10:03:08.857Z,3.53
2017-12-21T10:05:38.028Z,4.60
2017-12-21T10:08:07.155Z,4.12
2017-12-21T10:10:38.579Z,3.50
2017-12-21T10:13:08.015Z,3.95
2017-12-21T10:15:37.264Z,3.58
2017-12-21T10:18:07.437Z,4.40
2017-12-21T10:20:37.940Z,3.97
2017-12-21T10:23:07.935Z,3.45
2017-12-21T10:25:37.397Z,4.37
2017-12-21T10:28:06.570Z,3.35
2017-12-21T10:30:35.668Z,3.30
2017-12-21T10:33:04.838Z,3.58
2017-12-21T10:35:33.937Z,3.70
2017-12-21T10:38:03.045Z,5.00
2017-12-21T10:40:33.343Z,3.53
2017-12-21T10:43:03.040Z,3.33
2017-12-21T10:45:32.243Z,3.10
2017-12-21T10:48:03.358Z,3.25
2017-12-21T10:50:33.351Z,3.95
2017-12-21T10:53:02.498Z,3.62
2017-12-21T10:55:32.399Z,2.75
2017-12-21T10:58:01.478Z,1.90
2017-12-21T11:00:30.721Z,3.12
2017-12-21T11:02:59.874Z,3.25
2017-12-21T11:05:28.968Z,3.17
2017-12-21T11:07:58.170Z,3.17
2017-12-21T11:10:27.504Z,2.67
2017-12-21T11:12:56.610Z,2.45
2017-12-21T11:15:25.725Z,3.40
2017-12-21T11:17:54.912Z,2.20
2017-12-21T11:20:29.635Z,3.72
2017-12-21T11:22:59.514Z,2.08
2017-12-21T11:25:30.359Z,2.62
2017-12-21T11:28:02.864Z,2.72
2017-12-21T11:30:34.184Z,3.33
2017-12-21T11:33:06.870Z,2.08
2017-12-21T11:35:37.308Z,2.22
2017-12-21T11:38:06.957Z,3.10
2017-12-21T11:40:38.899Z,2.33
2017-12-21T11:43:09.403Z,2.22
2017-12-21T11:45:42.436Z,2.58
2017-12-21T11:48:13.672Z,2.80
2017-12-21T11:50:48.020Z,2.70
2017-12-21T11:53:22.375Z,2.45
2017-12-21T11:55:52.766Z,3.45
2017-12-21T11:58:23.571Z,4.15
2017-12-21T12:00:54.543Z,1.87
2017-12-21T12:03:24.593Z,1.98
2017-12-21T12:08:37.282Z,2.30
2017-12-21T12:11:07.201Z,2.75
2017-12-21T12:13:36.500Z,2.30
2017-12-21T12:16:06.777Z,1.95
2017-12-21T12:18:37.162Z,2.78
2017-12-21T12:21:07.164Z,2.30
2017-12-21T12:23:37.698Z,2.30
2017-12-21T12:26:07.616Z,2.42
2017-12-21T12:28:40.143Z,2.33
2017-12-21T12:31:09.791Z,2.17
2017-12-21T12:33:46.222Z,2.10
2017-12-21T12:36:17.907Z,2.78
2017-12-21T12:38:48.056Z,2.28
2017-12-21T12:41:19.589Z,2.50
2017-12-21T12:43:49.045Z,3.22
2017-12-21T12:46:19.847Z,3.15
2017-12-21T12:48:51.399Z,2.37
2017-12-21T12:51:21.283Z,2.50
2017-12-21T12:53:50.564Z,2.90
2017-12-21T12:56:20.580Z,2.42
2017-12-21T12:58:49.758Z,2.97
2017-12-21T13:01:18.870Z,1.50
2017-12-21T13:03:48.003Z,2.33
2017-12-21T13:06:17.081Z,2.60
2017-12-21T13:08:46.508Z,2.45
2017-12-21T13:11:16.418Z,2.65
2017-12-21T13:13:45.606Z,2.05
2017-12-21T13:16:14.833Z,2.70
2017-12-21T13:18:44.628Z,3.00
2017-12-21T13:21:13.831Z,3.30
2017-12-21T13:23:43.187Z,1.70
2017-12-21T13:26:12.711Z,2.50
2017-12-21T13:28:41.808Z,2.10
2017-12-21T13:31:10.999Z,2.90
2017-12-21T13:33:42.967Z,2.30
2017-12-21T13:36:16.868Z,2.33
2017-12-21T13:38:47.238Z,1.95
2017-12-21T13:41:16.422Z,1.77
2017-12-21T13:43:45.559Z,2.97
2017-12-21T13:46:15.036Z,2.12
2017-12-21T13:48:44.205Z,2.30
2017-12-21T13:51:14.111Z,3.40
2017-12-21T13:53:43.938Z,2.40
2017-12-21T13:56:13.250Z,2.53
2017-12-21T13:58:48.994Z,2.70
2017-12-21T14:01:19.037Z,2.75
2017-12-21T14:03:48.243Z,2.45
2017-12-21T14:06:17.509Z,2.65
2017-12-21T14:08:46.675Z,2.45
2017-12-21T14:11:15.782Z,3.00
2017-12-21T14:13:46.625Z,2.55
2017-12-21T14:16:16.055Z,2.90
2017-12-21T14:18:45.222Z,3.25
2017-12-21T14:21:16.084Z,3.17
2017-12-21T14:23:45.181Z,2.50
2017-12-21T14:26:14.407Z,4.28
2017-12-21T14:28:43.635Z,2.70
2017-12-21T14:31:12.784Z,2.33
2017-12-21T14:33:41.972Z,3.20
2017-12-21T14:36:13.296Z,2.80
2017-12-21T14:38:42.582Z,3.37
2017-12-21T14:41:11.764Z,2.95
2017-12-21T14:43:42.245Z,3.00
2017-12-21T14:46:11.480Z,3.55
2017-12-21T14:48:40.673Z,4.35
2017-12-21T14:51:10.043Z,3.65
2017-12-21T14:53:39.212Z,3.50
2017-12-21T14:56:12.636Z,3.60
2017-12-21T14:58:46.367Z,4.65
2017-12-21T15:01:17.166Z,4.53
2017-12-21T15:03:47.480Z,5.20
2017-12-21T15:06:16.645Z,4.50
2017-12-21T15:08:45.970Z,7.50
2017-12-21T15:11:23.227Z,6.12
2017-12-21T15:13:52.764Z,5.55
2017-12-21T15:16:21.974Z,5.72
2017-12-21T15:18:54.684Z,6.72
2017-12-21T15:21:26.423Z,5.37
2017-12-21T15:23:56.143Z,6.57
2017-12-21T15:26:25.255Z,6.90
2017-12-21T15:28:56.464Z,5.97
2017-12-21T15:31:25.627Z,6.37
2017-12-21T15:33:54.755Z,6.32
2017-12-21T15:36:23.923Z,6.85
2017-12-21T15:38:53.814Z,5.85
2017-12-21T15:41:22.990Z,5.00
2017-12-21T15:43:52.175Z,4.80
2017-12-21T15:46:21.392Z,4.62
2017-12-21T15:48:51.321Z,5.60
2017-12-21T15:51:20.485Z,5.62
2017-12-21T15:53:49.579Z,4.55
2017-12-21T15:56:19.468Z,4.93
2017-12-21T15:58:48.698Z,5.87
2017-12-21T16:01:17.927Z,3.75
2017-12-21T16:03:47.040Z,5.80
2017-12-21T16:06:16.236Z,4.62
2017-12-21T16:08:45.567Z,3.78
2017-12-21T16:11:16.882Z,3.70
2017-12-21T16:13:47.272Z,6.72
2017-12-21T16:16:16.617Z,5.05
2017-12-21T16:18:45.777Z,3.85
2017-12-21T16:21:15.469Z,3.75
2017-12-21T16:23:45.093Z,4.32
2017-12-21T16:26:15.141Z,4.78
2017-12-21T16:28:45.962Z,4.97
2017-12-21T16:31:16.048Z,4.40
2017-12-21T16:33:45.502Z,5.18
2017-12-21T16:36:14.787Z,5.43
2017-12-21T16:38:44.778Z,5.18
2017-12-21T16:41:14.990Z,4.30
2017-12-21T16:43:47.203Z,5.57
2017-12-21T16:46:23.069Z,5.20
2017-12-21T16:48:52.370Z,5.35
2017-12-21T16:51:21.628Z,6.80
2017-12-21T16:53:51.523Z,6.45
2017-12-21T16:56:21.313Z,6.32
2017-12-21T16:58:50.537Z,6.50
2017-12-21T17:01:19.836Z,6.22
2017-12-21T17:03:52.801Z,6.68
2017-12-21T17:06:24.963Z,5.47
2017-12-21T17:09:01.304Z,5.75
2017-12-21T17:11:31.300Z,5.68
2017-12-21T17:14:04.027Z,5.80
2017-12-21T17:16:33.227Z,6.25
2017-12-21T17:19:04.828Z,6.05
2017-12-21T17:21:37.498Z,6.32
2017-12-21T17:24:06.757Z,5.78
2017-12-21T17:26:36.709Z,6.90
2017-12-21T17:29:08.022Z,7.07
2017-12-21T17:31:37.478Z,7.20
2017-12-21T17:34:07.414Z,6.65
2017-12-21T17:36:37.175Z,8.35
2017-12-21T17:39:08.470Z,8.00
2017-12-21T17:41:37.838Z,9.23
2017-12-21T17:44:07.040Z,7.70
2017-12-21T17:46:36.214Z,8.85
2017-12-21T17:49:06.184Z,7.95
2017-12-21T17:51:37.011Z,8.05
2017-12-21T17:54:09.146Z,7.47
2017-12-21T17:56:38.462Z,8.35
2017-12-21T17:59:07.865Z,9.50
2017-12-21T18:01:37.197Z,9.60
2017-12-21T18:04:06.541Z,7.87
2017-12-21T18:06:35.648Z,8.93
2017-12-21T18:09:05.178Z,8.80
2017-12-21T18:11:34.620Z,10.02
2017-12-21T18:14:03.743Z,9.85
2017-12-21T18:16:33.704Z,9.13
2017-12-21T18:19:03.595Z,10.43
2017-12-21T18:21:32.773Z,10.10
2017-12-21T18:24:03.510Z,9.35
2017-12-21T18:26:32.707Z,9.35
2017-12-21T18:29:01.792Z,9.85
2017-12-21T18:31:31.107Z,7.95
2017-12-21T18:34:01.021Z,7.57
2017-12-21T18:36:30.198Z,8.43
2017-12-21T18:38:59.679Z,8.02
2017-12-21T18:41:29.626Z,8.50
2017-12-21T18:43:59.551Z,9.45
2017-12-21T18:46:29.746Z,8.55
2017-12-21T18:48:59.069Z,8.50
2017-12-21T18:51:28.274Z,8.82
2017-12-21T18:53:57.679Z,9.30
2017-12-21T18:56:27.580Z,7.57
2017-12-21T18:58:56.764Z,7.40
2017-12-21T19:01:26.013Z,9.20
2017-12-21T19:03:55.973Z,9.10
2017-12-21T19:06:25.966Z,8.85
2017-12-21T19:08:55.391Z,9.15
2017-12-21T19:11:24.492Z,9.40
2017-12-21T19:13:53.599Z,10.13
2017-12-21T19:16:22.757Z,9.10
2017-12-21T19:18:55.027Z,8.85
2017-12-21T19:21:24.682Z,8.80
2017-12-21T19:23:53.811Z,10.80
2017-12-21T19:26:23.706Z,10.52
2017-12-21T19:28:53.865Z,10.85
2017-12-21T19:31:23.453Z,9.35
2017-12-21T19:33:53.325Z,8.98
2017-12-21T19:36:22.513Z,8.45
2017-12-21T19:38:51.652Z,9.32
2017-12-21T19:41:21.619Z,8.23
2017-12-21T19:43:51.530Z,8.90
2017-12-21T19:46:20.703Z,8.57
2017-12-21T19:48:49.798Z,8.57
2017-12-21T19:51:19.298Z,8.50
2017-12-21T19:53:49.166Z,10.55
2017-12-21T19:56:18.311Z,8.68
2017-12-21T19:58:48.282Z,12.75
2017-12-21T20:01:17.363Z,10.40
2017-12-21T20:03:48.680Z,10.90
2017-12-21T20:06:18.566Z,10.85
2017-12-21T20:08:47.943Z,11.20
2017-12-21T20:11:17.220Z,9.80
2017-12-21T20:13:46.333Z,11.18
2017-12-21T20:16:15.512Z,10.88
2017-12-21T20:18:44.949Z,10.40
2017-12-21T20:21:14.184Z,11.68
2017-12-21T20:23:43.427Z,10.57
2017-12-21T20:26:13.814Z,10.20
2017-12-21T20:28:43.777Z,10.52
2017-12-21T20:31:13.724Z,11.38
2017-12-21T20:33:42.892Z,12.10
2017-12-21T20:36:12.542Z,10.60
2017-12-21T20:38:41.774Z,12.18
2017-12-21T20:41:11.707Z,11.15
2017-12-21T20:43:41.869Z,11.02
2017-12-21T20:46:11.139Z,10.70
2017-12-21T20:48:40.338Z,10.32
2017-12-21T20:51:10.423Z,11.95
2017-12-21T20:53:39.537Z,11.07
2017-12-21T20:56:08.719Z,9.82
2017-12-21T20:58:39.034Z,10.07
2017-12-21T21:01:08.152Z,9.98
2017-12-21T21:03:38.659Z,9.45
2017-12-21T21:06:08.222Z,9.52
2017-12-21T21:08:37.363Z,9.35
2017-12-21T21:11:06.496Z,8.48
2017-12-21T21:13:36.024Z,9.82
2017-12-21T21:16:05.164Z,10.43
2017-12-21T21:18:36.330Z,9.23
2017-12-21T21:21:05.452Z,9.55
2017-12-21T21:23:34.601Z,7.90
2017-12-21T21:26:03.961Z,7.37
2017-12-21T21:28:33.831Z,8.40
2017-12-21T21:31:02.988Z,7.75
2017-12-21T21:33:33.077Z,6.80
2017-12-21T21:36:02.954Z,7.78
2017-12-21T21:38:32.196Z,6.85
2017-12-21T21:41:01.344Z,7.18
2017-12-21T21:43:30.597Z,7.07
2017-12-21T21:45:59.781Z,6.87
2017-12-21T21:48:29.320Z,6.35
2017-12-21T21:50:58.462Z,5.62
2017-12-21T21:53:28.324Z,6.05
2017-12-21T21:55:57.537Z,5.68
2017-12-21T21:58:26.768Z,6.05
2017-12-21T22:00:55.860Z,6.85
2017-12-21T22:03:25.496Z,5.90
2017-12-21T22:05:54.668Z,5.60
2017-12-21T22:08:23.798Z,4.80
2017-12-21T22:10:54.188Z,4.40
2017-12-21T22:13:24.208Z,5.12
2017-12-21T22:15:53.357Z,4.57
2017-12-21T22:18:23.556Z,4.15
2017-12-21T22:20:52.942Z,4.97
2017-12-21T22:23:22.108Z,3.25
2017-12-21T22:25:52.947Z,4.05
2017-12-21T22:28:22.462Z,3.90
2017-12-21T22:30:51.786Z,4.12
2017-12-21T22:33:22.315Z,5.57
2017-12-21T22:35:51.406Z,3.12
2017-12-21T22:38:20.542Z,4.60
2017-12-21T22:40:49.699Z,4.25
2017-12-21T22:43:18.843Z,3.50
2017-12-21T22:45:47.978Z,4.22
2017-12-21T22:48:17.362Z,4.35
2017-12-21T22:50:46.561Z,3.70
2017-12-21T22:53:15.762Z,3.28
2017-12-21T22:55:45.219Z,4.37
2017-12-21T22:58:14.403Z,3.03
2017-12-21T23:00:44.278Z,3.25
2017-12-21T23:03:13.909Z,3.75
2017-12-21T23:05:43.771Z,3.05
2017-12-21T23:08:13.136Z,3.35
2017-12-21T23:10:44.096Z,2.42
2017-12-21T23:13:13.367Z,2.53
2017-12-21T23:15:44.796Z,2.65
2017-12-21T23:18:13.953Z,2.60
2017-12-21T23:20:43.155Z,3.00
2017-12-21T23:23:12.507Z,3.47
2017-12-21T23:25:42.395Z,3.45
2017-12-21T23:28:12.080Z,2.37
2017-12-21T23:30:41.637Z,3.00
2017-12-21T23:33:10.968Z,2.37
2017-12-21T23:35:40.298Z,2.92
2017-12-21T23:38:11.197Z,2.70
2017-12-21T23:40:40.478Z,2.50
2017-12-21T23:43:09.956Z,2.37
2017-12-21T23:45:39.399Z,2.90
2017-12-21T23:48:08.641Z,2.80
2017-12-21T23:50:37.904Z,3.00
2017-12-21T23:53:08.661Z,2.87
2017-12-21T23:55:38.778Z,2.65
2017-12-21T23:58:07.900Z,3.28
